Time;durP1;ratioP1;P1;durP2;ratioP2;P2;SDS_P1;SDS_P2;PMS_P1;PMS_P2;Temp;Humidity;BMP_temperature;BMP_pressure;BME280_temperature;BME280_humidity;BME280_pressure;Samples;Min_cycle;Max_cycle;Signal;HPM_P1;HPM_P2
2022/12/28 00:04:14;;;;;;;;;;;17.30;50.30;;;;;;10249013;28;960;-75
2022/12/28 00:09:09;;;;;;;;;;;17.30;50.50;;;;;;10248810;28;982;-75
2022/12/28 00:14:04;;;;;;;;;;;17.30;50.40;;;;;;10249173;28;869;-75
2022/12/28 00:19:00;;;;;;;;;;;17.30;50.40;;;;;;10248683;28;1906;-75
2022/12/28 00:23:55;;;;;;;;;;;17.30;50.40;;;;;;10248893;28;851;-75
2022/12/28 00:28:50;;;;;;;;;;;17.20;51.00;;;;;;10246844;28;944;-75
2022/12/28 00:33:46;;;;;;;;;;;17.20;50.20;;;;;;10247880;28;1287;-75
2022/12/28 00:38:41;;;;;;;;;;;17.20;50.20;;;;;;10247638;28;1906;-76
2022/12/28 00:43:36;;;;;;;;;;;17.20;50.30;;;;;;10247559;28;933;-75
2022/12/28 00:48:32;;;;;;;;;;;17.20;50.20;;;;;;10247078;28;776;-75
2022/12/28 00:53:27;;;;;;;;;;;17.20;50.20;;;;;;10247213;28;841;-75
2022/12/28 00:58:23;;;;;;;;;;;17.20;50.30;;;;;;10247488;28;1963;-75
2022/12/28 01:03:18;;;;;;;;;;;17.20;50.20;;;;;;10247356;28;815;-75
2022/12/28 01:08:13;;;;;;;;;;;17.20;50.00;;;;;;10247816;28;845;-75
2022/12/28 01:13:09;;;;;;;;;;;17.20;50.10;;;;;;10246405;28;862;-75
2022/12/28 01:18:04;;;;;;;;;;;17.20;50.20;;;;;;10246739;28;1965;-75
2022/12/28 01:22:59;;;;;;;;;;;17.20;50.20;;;;;;10246019;28;908;-75
2022/12/28 01:27:55;;;;;;;;;;;17.20;50.20;;;;;;10245268;28;901;-75
2022/12/28 01:32:50;;;;;;;;;;;17.20;50.10;;;;;;10245552;28;1692;-75
2022/12/28 01:37:45;;;;;;;;;;;17.20;50.10;;;;;;10244937;28;1918;-75
2022/12/28 01:42:41;;;;;;;;;;;17.20;50.10;;;;;;10245901;28;814;-75
2022/12/28 01:47:36;;;;;;;;;;;17.20;50.00;;;;;;10246123;28;786;-75
2022/12/28 01:52:32;;;;;;;;;;;17.20;50.20;;;;;;10244976;28;851;-75
2022/12/28 01:57:27;;;;;;;;;;;17.20;50.10;;;;;;10244731;28;1902;-75
2022/12/28 02:02:22;;;;;;;;;;;17.20;50.20;;;;;;10245320;28;907;-75
2022/12/28 02:07:18;;;;;;;;;;;17.20;50.10;;;;;;10244657;28;863;-75
2022/12/28 02:12:13;;;;;;;;;;;17.20;50.10;;;;;;10245028;28;876;-75
2022/12/28 02:17:08;;;;;;;;;;;17.20;50.30;;;;;;10244257;28;1914;-75
2022/12/28 02:22:04;;;;;;;;;;;17.20;50.30;;;;;;10243789;28;838;-75
2022/12/28 02:26:59;;;;;;;;;;;17.20;50.10;;;;;;10244637;28;806;-75
2022/12/28 02:31:54;;;;;;;;;;;17.10;50.20;;;;;;10244135;28;857;-75
2022/12/28 02:36:50;;;;;;;;;;;17.20;50.20;;;;;;10243697;28;1914;-75
2022/12/28 02:41:45;;;;;;;;;;;17.20;50.30;;;;;;10243841;28;846;-75
2022/12/28 02:51:55;;;;;;;;;;;17.10;50.30;;;;;;10248869;28;576;-75
2022/12/28 02:56:50;;;;;;;;;;;17.10;50.10;;;;;;10251510;28;1954;-75
2022/12/28 03:01:46;;;;;;;;;;;17.10;50.40;;;;;;10251425;28;1038;-75
2022/12/28 03:11:55;;;;;;;;;;;17.10;50.40;;;;;;10251216;28;647;-75
2022/12/28 03:32:32;;;;;;;;;;;17.10;50.20;;;;;;10249756;28;1298;-75
2022/12/28 03:37:28;;;;;;;;;;;17.10;50.20;;;;;;10250065;28;1914;-75
2022/12/28 03:47:37;;;;;;;;;;;17.10;50.30;;;;;;10249397;28;636;-75
2022/12/28 03:52:32;;;;;;;;;;;17.10;50.30;;;;;;10249514;28;787;-75
2022/12/28 03:57:28;;;;;;;;;;;17.10;50.40;;;;;;10249272;28;1898;-75
2022/12/28 04:02:23;;;;;;;;;;;17.10;50.20;;;;;;10248856;28;870;-75
2022/12/28 04:07:19;;;;;;;;;;;17.10;50.20;;;;;;10248971;28;860;-75
2022/12/28 04:12:14;;;;;;;;;;;17.10;50.20;;;;;;10248802;28;886;-75
2022/12/28 04:17:09;;;;;;;;;;;17.10;50.40;;;;;;10248553;28;1965;-75
2022/12/28 04:22:05;;;;;;;;;;;17.10;50.30;;;;;;10248642;28;803;-75
2022/12/28 04:27:00;;;;;;;;;;;17.10;50.10;;;;;;10248404;28;861;-75
2022/12/28 04:31:55;;;;;;;;;;;17.10;50.50;;;;;;10248096;28;896;-73
2022/12/28 04:36:51;;;;;;;;;;;17.10;50.30;;;;;;10248267;28;1985;-73
2022/12/28 04:41:46;;;;;;;;;;;17.10;50.40;;;;;;10248312;28;916;-73
2022/12/28 04:46:42;;;;;;;;;;;17.00;50.20;;;;;;10247489;28;783;-72
2022/12/28 04:51:37;;;;;;;;;;;17.00;50.20;;;;;;10246848;28;984;-72
2022/12/28 04:56:32;;;;;;;;;;;17.00;50.40;;;;;;10247665;28;887;-73
2022/12/28 05:01:28;;;;;;;;;;;17.00;50.20;;;;;;10246284;28;1902;-73
2022/12/28 05:06:23;;;;;;;;;;;17.00;50.20;;;;;;10247204;28;997;-73
2022/12/28 05:11:19;;;;;;;;;;;17.00;50.00;;;;;;10246438;28;850;-73
2022/12/28 05:16:14;;;;;;;;;;;17.00;50.20;;;;;;10245718;28;796;-72
2022/12/28 05:21:09;;;;;;;;;;;17.10;50.20;;;;;;10246124;28;1910;-73
2022/12/28 05:26:05;;;;;;;;;;;17.10;50.20;;;;;;10245325;28;814;-73
2022/12/28 05:31:00;;;;;;;;;;;17.10;50.00;;;;;;10245402;28;870;-73
2022/12/28 05:35:55;;;;;;;;;;;17.10;50.00;;;;;;10244929;28;1307;-73
2022/12/28 05:40:51;;;;;;;;;;;17.10;50.00;;;;;;10245732;28;1984;-73
2022/12/28 05:45:46;;;;;;;;;;;17.10;49.90;;;;;;10245244;28;759;-73
2022/12/28 05:50:41;;;;;;;;;;;17.10;49.90;;;;;;10245973;28;790;-75
2022/12/28 05:55:37;;;;;;;;;;;17.20;50.10;;;;;;10244358;28;992;-75
2022/12/28 06:00:32;;;;;;;;;;;17.20;49.90;;;;;;10244682;28;1902;-75
2022/12/28 06:05:28;;;;;;;;;;;17.20;49.90;;;;;;10245273;28;851;-76
2022/12/28 06:10:23;;;;;;;;;;;17.20;49.90;;;;;;10244495;28;804;-76
2022/12/28 06:15:18;;;;;;;;;;;17.20;50.00;;;;;;10244987;28;810;-75
2022/12/28 06:20:14;;;;;;;;;;;17.20;50.00;;;;;;10243660;28;1910;-75
2022/12/28 06:25:09;;;;;;;;;;;17.20;50.00;;;;;;10244147;28;809;-76
2022/12/28 06:30:04;;;;;;;;;;;17.20;50.60;;;;;;10244091;28;800;-75
2022/12/28 06:35:01;;;;;;;;;;;17.20;50.10;;;;;;10244229;28;1404;-77
2022/12/28 06:39:56;;;;;;;;;;;17.20;50.00;;;;;;10243792;28;1891;-80
2022/12/28 06:44:52;;;;;;;;;;;17.20;50.00;;;;;;10243786;28;968;-79
2022/12/28 06:49:47;;;;;;;;;;;17.20;50.10;;;;;;10244253;28;742;-79
2022/12/28 06:54:42;;;;;;;;;;;17.20;50.10;;;;;;10243574;28;875;-79
2022/12/28 06:59:38;;;;;;;;;;;17.20;50.10;;;;;;10244027;28;1961;-79
2022/12/28 07:04:33;;;;;;;;;;;17.20;50.10;;;;;;10243255;28;768;-81
2022/12/28 07:09:28;;;;;;;;;;;17.20;50.20;;;;;;10243328;28;900;-80
2022/12/28 07:14:24;;;;;;;;;;;17.10;50.30;;;;;;10243662;28;825;-79
2022/12/28 07:19:19;;;;;;;;;;;17.10;50.30;;;;;;10242887;28;1902;-79
2022/12/28 07:24:15;;;;;;;;;;;17.10;50.40;;;;;;10242785;28;821;-79
2022/12/28 07:29:10;;;;;;;;;;;17.00;50.40;;;;;;10242666;28;895;-80
2022/12/28 07:34:05;;;;;;;;;;;17.10;50.40;;;;;;10242471;28;1136;-79
2022/12/28 07:39:01;;;;;;;;;;;17.10;50.30;;;;;;10248594;28;1979;-80
2022/12/28 07:43:56;;;;;;;;;;;17.10;50.30;;;;;;10250205;28;885;-80
2022/12/28 07:48:51;;;;;;;;;;;17.20;50.20;;;;;;10249488;28;818;-79
2022/12/28 07:53:47;;;;;;;;;;;17.20;50.30;;;;;;10229365;28;85945;-78
2022/12/28 07:58:44;;;;;;;;;;;17.20;50.30;;;;;;10208795;28;1958;-78
2022/12/28 08:03:39;;;;;;;;;;;17.10;50.30;;;;;;10209588;28;920;-79
2022/12/28 08:08:35;;;;;;;;;;;17.20;50.40;;;;;;10208053;28;848;-79
2022/12/28 08:13:30;;;;;;;;;;;17.10;50.40;;;;;;10208363;28;845;-79
2022/12/28 08:18:26;;;;;;;;;;;17.10;50.30;;;;;;10208014;28;1906;-79
2022/12/28 08:23:21;;;;;;;;;;;17.20;50.40;;;;;;10208283;28;857;-71
2022/12/28 08:28:16;;;;;;;;;;;17.20;50.20;;;;;;10208411;28;883;-72
2022/12/28 08:33:12;;;;;;;;;;;17.50;50.60;;;;;;10207582;28;1283;-72
2022/12/28 08:38:07;;;;;;;;;;;17.60;50.90;;;;;;10207824;28;1914;-72
2022/12/28 08:43:03;;;;;;;;;;;17.60;51.00;;;;;;10207205;28;794;-71
2022/12/28 08:47:58;;;;;;;;;;;17.70;50.70;;;;;;10206092;28;1643;-71
2022/12/28 08:52:53;;;;;;;;;;;17.70;50.90;;;;;;10207702;28;956;-71
2022/12/28 08:57:49;;;;;;;;;;;17.70;50.70;;;;;;10206837;28;1963;-72
2022/12/28 09:02:44;;;;;;;;;;;17.70;51.00;;;;;;10206699;28;875;-69
2022/12/28 09:07:39;;;;;;;;;;;17.80;50.90;;;;;;10206442;28;884;-68
2022/12/28 09:12:35;;;;;;;;;;;17.70;50.80;;;;;;10206093;28;774;-67
2022/12/28 09:17:30;;;;;;;;;;;17.70;50.90;;;;;;10206636;28;1902;-68
2022/12/28 09:22:25;;;;;;;;;;;17.70;50.90;;;;;;10215961;28;1201;-67
2022/12/28 09:27:21;;;;;;;;;;;17.80;51.00;;;;;;10246598;28;881;-67
2022/12/28 09:32:16;;;;;;;;;;;17.70;51.00;;;;;;10245631;28;1070;-68
2022/12/28 09:37:11;;;;;;;;;;;17.70;51.00;;;;;;10245561;28;1968;-68
2022/12/28 09:42:07;;;;;;;;;;;17.70;51.10;;;;;;10245956;28;913;-68
2022/12/28 09:47:02;;;;;;;;;;;17.70;50.90;;;;;;10245585;28;860;-71
2022/12/28 09:51:57;;;;;;;;;;;17.70;50.90;;;;;;10245702;28;955;-72
2022/12/28 09:56:53;;;;;;;;;;;17.70;51.00;;;;;;10244955;28;837;-72
2022/12/28 10:01:48;;;;;;;;;;;17.70;50.80;;;;;;10244225;28;1906;-70
2022/12/28 10:06:44;;;;;;;;;;;17.70;50.80;;;;;;10244425;28;849;-75
2022/12/28 10:11:39;;;;;;;;;;;17.60;51.00;;;;;;10244872;28;935;-71
2022/12/28 10:16:35;;;;;;;;;;;17.40;51.20;;;;;;10244262;28;888;-70
2022/12/28 10:21:30;;;;;;;;;;;17.50;51.30;;;;;;10243945;28;1953;-70
2022/12/28 10:26:27;;;;;;;;;;;17.60;51.40;;;;;;10244017;28;951;-70
2022/12/28 10:31:22;;;;;;;;;;;17.60;51.50;;;;;;10243802;28;782;-71
2022/12/28 10:36:17;;;;;;;;;;;17.60;51.40;;;;;;10244970;28;1181;-71
2022/12/28 10:41:13;;;;;;;;;;;17.60;51.40;;;;;;10243480;28;1918;-72
2022/12/28 10:46:09;;;;;;;;;;;17.60;51.40;;;;;;10243450;28;877;-71
2022/12/28 10:51:04;;;;;;;;;;;17.60;51.40;;;;;;10243449;28;821;-71
2022/12/28 10:55:59;;;;;;;;;;;17.70;51.20;;;;;;10243402;28;1280;-71
2022/12/28 11:00:55;;;;;;;;;;;17.60;51.30;;;;;;10242548;28;1906;-68
2022/12/28 11:05:50;;;;;;;;;;;17.70;51.20;;;;;;10243738;28;1052;-72
2022/12/28 11:10:45;;;;;;;;;;;17.70;51.50;;;;;;10244497;28;920;-72
2022/12/28 11:15:43;;;;;;;;;;;17.70;51.40;;;;;;10251368;28;947;-72
2022/12/28 11:20:38;;;;;;;;;;;17.70;51.50;;;;;;10250361;28;1910;-72
2022/12/28 11:25:33;;;;;;;;;;;17.70;51.50;;;;;;10249986;28;1015;-72
2022/12/28 11:30:30;;;;;;;;;;;17.70;51.80;;;;;;10249645;28;980;-71
2022/12/28 11:35:26;;;;;;;;;;;17.80;51.60;;;;;;10250077;28;1153;-69
2022/12/28 11:40:22;;;;;;;;;;;17.70;51.60;;;;;;10250726;28;1973;-71
2022/12/28 11:45:17;;;;;;;;;;;17.70;51.60;;;;;;10248917;28;850;-72
2022/12/28 11:50:12;;;;;;;;;;;17.80;51.50;;;;;;10248939;28;852;-75
2022/12/28 11:55:08;;;;;;;;;;;17.80;51.50;;;;;;10249703;28;786;-75
2022/12/28 12:00:03;;;;;;;;;;;17.60;52.00;;;;;;10248166;28;1902;-75
2022/12/28 12:04:58;;;;;;;;;;;17.50;52.10;;;;;;10248928;28;911;-75
2022/12/28 12:09:54;;;;;;;;;;;17.40;52.10;;;;;;10249318;28;856;-75
2022/12/28 12:14:49;;;;;;;;;;;17.40;52.10;;;;;;10248750;28;968;-76
2022/12/28 12:19:44;;;;;;;;;;;17.40;52.10;;;;;;10248299;28;1914;-75
2022/12/28 12:24:40;;;;;;;;;;;17.40;52.00;;;;;;10248012;28;788;-75
2022/12/28 12:29:35;;;;;;;;;;;17.40;51.80;;;;;;10248531;28;1219;-75
2022/12/28 12:34:30;;;;;;;;;;;17.40;51.80;;;;;;10248488;28;1133;-75
2022/12/28 12:39:26;;;;;;;;;;;17.40;51.80;;;;;;10248623;28;1976;-74
2022/12/28 12:44:21;;;;;;;;;;;17.40;51.80;;;;;;10247413;28;826;-75
2022/12/28 12:49:16;;;;;;;;;;;17.30;51.70;;;;;;10247893;28;941;-76
2022/12/28 12:54:12;;;;;;;;;;;17.30;51.70;;;;;;10246492;28;829;-75
2022/12/28 12:59:07;;;;;;;;;;;17.30;51.80;;;;;;10246803;28;1965;-75
2022/12/28 13:04:03;;;;;;;;;;;17.30;51.60;;;;;;10247310;28;989;-76
2022/12/28 13:08:58;;;;;;;;;;;17.30;51.60;;;;;;10245987;28;936;-75
2022/12/28 13:13:53;;;;;;;;;;;17.30;51.70;;;;;;10246158;28;817;-75
2022/12/28 13:18:49;;;;;;;;;;;17.30;51.50;;;;;;10246555;28;1910;-73
2022/12/28 13:23:44;;;;;;;;;;;17.30;51.60;;;;;;10245256;28;1007;-72
2022/12/28 13:28:39;;;;;;;;;;;17.50;51.50;;;;;;10245620;28;821;-73
2022/12/28 13:33:35;;;;;;;;;;;17.70;51.70;;;;;;10244860;28;1430;-72
2022/12/28 13:38:30;;;;;;;;;;;17.80;51.60;;;;;;10245207;28;1922;-72
2022/12/28 13:43:26;;;;;;;;;;;17.80;51.70;;;;;;10244554;28;896;-72
2022/12/28 13:48:21;;;;;;;;;;;17.80;52.00;;;;;;10245331;28;828;-73
2022/12/28 13:53:17;;;;;;;;;;;17.80;52.30;;;;;;10244888;28;960;-73
2022/12/28 13:58:12;;;;;;;;;;;17.80;52.40;;;;;;10245248;28;1910;-72
2022/12/28 14:03:07;;;;;;;;;;;17.90;52.40;;;;;;10244594;28;918;-73
2022/12/28 14:08:03;;;;;;;;;;;17.90;52.10;;;;;;10245206;28;819;-73
2022/12/28 14:12:58;;;;;;;;;;;17.90;52.50;;;;;;10244340;28;789;-72
2022/12/28 14:17:54;;;;;;;;;;;17.90;52.20;;;;;;10244091;28;1910;-72
2022/12/28 14:22:49;;;;;;;;;;;17.80;52.20;;;;;;10243845;28;1229;-73
2022/12/28 14:27:44;;;;;;;;;;;17.90;52.30;;;;;;10243895;28;790;-73
2022/12/28 14:32:40;;;;;;;;;;;17.80;52.30;;;;;;10244213;28;1165;-73
2022/12/28 14:37:35;;;;;;;;;;;17.90;52.30;;;;;;10244162;28;1914;-73
2022/12/28 14:42:30;;;;;;;;;;;17.90;52.10;;;;;;10243013;28;881;-73
2022/12/28 14:47:26;;;;;;;;;;;17.90;52.30;;;;;;10248316;28;888;-73
2022/12/28 14:52:21;;;;;;;;;;;17.90;52.20;;;;;;10251822;28;896;-73
2022/12/28 14:57:17;;;;;;;;;;;17.90;52.60;;;;;;10251466;28;1909;-73
2022/12/28 15:02:12;;;;;;;;;;;17.90;52.00;;;;;;10251322;28;866;-73
2022/12/28 15:07:07;;;;;;;;;;;17.90;52.10;;;;;;10251782;28;845;-73
2022/12/28 15:12:03;;;;;;;;;;;18.00;52.00;;;;;;10251249;28;787;-73
2022/12/28 15:16:58;;;;;;;;;;;17.90;51.90;;;;;;10251046;28;794;-72
2022/12/28 15:21:53;;;;;;;;;;;18.00;52.10;;;;;;10251415;28;1902;-73
2022/12/28 15:26:49;;;;;;;;;;;17.90;52.00;;;;;;10250730;28;916;-71
2022/12/28 15:31:44;;;;;;;;;;;18.00;51.80;;;;;;10250538;28;773;-73
2022/12/28 15:36:41;;;;;;;;;;;18.00;51.90;;;;;;10250777;28;1134;-73
2022/12/28 15:41:46;;;;;;;;;;;18.00;51.80;;;;;;10250613;28;1906;-73
2022/12/28 15:46:41;;;;;;;;;;;18.00;52.10;;;;;;10249973;28;936;-73
2022/12/28 15:51:37;;;;;;;;;;;18.00;51.90;;;;;;10249581;28;1150;-73
2022/12/28 15:56:32;;;;;;;;;;;18.00;51.80;;;;;;10249648;28;826;-72
2022/12/28 16:01:27;;;;;;;;;;;18.00;51.70;;;;;;10249307;28;1894;-72
2022/12/28 16:06:24;;;;;;;;;;;18.00;51.50;;;;;;10249003;28;771;-72
2022/12/28 16:11:19;;;;;;;;;;;18.00;51.90;;;;;;10249524;28;855;-74
2022/12/28 16:16:14;;;;;;;;;;;18.00;52.20;;;;;;10248830;28;913;-71
2022/12/28 16:21:10;;;;;;;;;;;18.10;53.30;;;;;;10248812;28;1898;-72
2022/12/28 16:26:05;;;;;;;;;;;18.00;53.70;;;;;;10248564;28;897;-73
2022/12/28 16:31:01;;;;;;;;;;;18.00;54.60;;;;;;10248924;28;929;-73
2022/12/28 16:35:56;;;;;;;;;;;18.00;55.50;;;;;;10249177;28;1208;-73
2022/12/28 16:40:51;;;;;;;;;;;18.00;56.70;;;;;;10247806;28;1902;-74
2022/12/28 16:45:47;;;;;;;;;;;18.10;57.20;;;;;;10247747;28;806;-74
2022/12/28 16:50:42;;;;;;;;;;;18.00;56.80;;;;;;10248087;28;774;-77
2022/12/28 16:55:37;;;;;;;;;;;17.90;55.90;;;;;;10247363;28;853;-73
2022/12/28 17:00:33;;;;;;;;;;;17.90;55.70;;;;;;10247101;28;1902;-73
2022/12/28 17:05:28;;;;;;;;;;;17.90;54.40;;;;;;10247857;28;959;-73
2022/12/28 17:10:24;;;;;;;;;;;17.90;53.90;;;;;;10245984;28;861;-74
2022/12/28 17:15:19;;;;;;;;;;;17.90;53.80;;;;;;10247267;28;851;-73
2022/12/28 17:20:15;;;;;;;;;;;17.90;53.40;;;;;;10246878;28;1902;-73
2022/12/28 17:25:10;;;;;;;;;;;18.00;53.20;;;;;;10246653;28;992;-73
2022/12/28 17:30:05;;;;;;;;;;;18.00;53.20;;;;;;10246607;28;920;-73
2022/12/28 17:35:01;;;;;;;;;;;18.10;52.90;;;;;;10245890;28;1327;-73
2022/12/28 17:39:56;;;;;;;;;;;18.00;53.30;;;;;;10246308;28;1906;-73
2022/12/28 17:44:52;;;;;;;;;;;18.00;53.20;;;;;;10246072;28;828;-73
2022/12/28 17:49:47;;;;;;;;;;;18.00;53.00;;;;;;10246052;28;833;-72
2022/12/28 17:54:42;;;;;;;;;;;18.00;52.80;;;;;;10244570;28;889;-72
2022/12/28 17:59:38;;;;;;;;;;;17.90;52.80;;;;;;10244337;28;1926;-72
2022/12/28 18:04:34;;;;;;;;;;;17.90;52.60;;;;;;10245492;28;798;-72
2022/12/28 18:09:29;;;;;;;;;;;18.00;52.90;;;;;;10244667;28;788;-73
2022/12/28 18:14:25;;;;;;;;;;;18.00;52.60;;;;;;10245141;28;873;-73
2022/12/28 18:19:20;;;;;;;;;;;18.00;52.80;;;;;;10243521;28;1902;-73
2022/12/28 18:24:19;;;;;;;;;;;18.00;52.70;;;;;;10244309;28;879;-73
2022/12/28 18:29:14;;;;;;;;;;;18.00;52.50;;;;;;10244770;28;817;-73
2022/12/28 18:34:10;;;;;;;;;;;18.00;52.50;;;;;;10244091;28;1129;-73
2022/12/28 18:39:05;;;;;;;;;;;18.00;52.30;;;;;;10243317;28;1906;-73
2022/12/28 18:44:02;;;;;;;;;;;18.00;52.50;;;;;;10244327;28;928;-73
2022/12/28 18:48:59;;;;;;;;;;;18.00;52.40;;;;;;10244371;28;811;-73
2022/12/28 18:53:54;;;;;;;;;;;18.00;52.10;;;;;;10243706;28;934;-73
2022/12/28 18:58:50;;;;;;;;;;;18.00;52.20;;;;;;10244123;28;1902;-73
2022/12/28 19:03:45;;;;;;;;;;;18.10;52.10;;;;;;10243491;28;917;-73
2022/12/28 19:08:41;;;;;;;;;;;18.00;52.10;;;;;;10243436;28;770;-73
2022/12/28 19:13:36;;;;;;;;;;;18.00;52.20;;;;;;10243324;28;759;-73
2022/12/28 19:18:31;;;;;;;;;;;18.00;51.90;;;;;;10243156;28;1953;-71
2022/12/28 19:23:27;;;;;;;;;;;18.00;51.90;;;;;;10243144;28;826;-72
2022/12/28 19:28:22;;;;;;;;;;;18.00;51.70;;;;;;10243124;28;873;-73
2022/12/28 19:33:17;;;;;;;;;;;18.00;51.70;;;;;;10247128;28;1139;-73
2022/12/28 19:38:13;;;;;;;;;;;18.00;51.70;;;;;;10250279;28;1902;-73
2022/12/28 19:43:08;;;;;;;;;;;18.00;51.80;;;;;;10251012;28;964;-73
2022/12/28 19:48:04;;;;;;;;;;;18.10;51.70;;;;;;10249943;28;806;-73
2022/12/28 19:52:59;;;;;;;;;;;18.00;51.70;;;;;;10251117;28;928;-73
2022/12/28 19:57:55;;;;;;;;;;;18.00;51.70;;;;;;10248935;28;1922;-73
2022/12/28 20:02:50;;;;;;;;;;;18.00;51.90;;;;;;10249707;28;907;-73
2022/12/28 20:07:46;;;;;;;;;;;18.00;51.80;;;;;;10249273;28;904;-73
2022/12/28 20:12:41;;;;;;;;;;;18.00;51.70;;;;;;10249112;28;1023;-73
2022/12/28 20:17:36;;;;;;;;;;;18.10;51.80;;;;;;10249405;28;1962;-73
2022/12/28 20:22:32;;;;;;;;;;;18.10;52.30;;;;;;10248686;28;913;-73
2022/12/28 20:27:29;;;;;;;;;;;18.00;51.80;;;;;;10248460;28;950;-73
2022/12/28 20:32:24;;;;;;;;;;;18.00;51.90;;;;;;10248088;28;1080;-73
2022/12/28 20:37:20;;;;;;;;;;;18.00;51.70;;;;;;10248715;28;1959;-73
2022/12/28 20:47:29;;;;;;;;;;;18.10;51.50;;;;;;10247487;28;663;-73
2022/12/28 20:52:24;;;;;;;;;;;18.00;51.60;;;;;;10246338;28;736;-73
2022/12/28 20:57:20;;;;;;;;;;;18.00;51.50;;;;;;10247308;28;1906;-73
2022/12/28 21:02:15;;;;;;;;;;;18.00;51.60;;;;;;10247252;28;849;-73
2022/12/28 21:07:11;;;;;;;;;;;18.00;51.70;;;;;;10247630;28;865;-73
2022/12/28 21:12:06;;;;;;;;;;;18.00;51.70;;;;;;10247802;28;810;-73
2022/12/28 21:17:01;;;;;;;;;;;18.00;51.70;;;;;;10246613;28;799;-73
2022/12/28 21:21:57;;;;;;;;;;;17.90;51.70;;;;;;10246390;28;1973;-73
2022/12/28 21:26:52;;;;;;;;;;;17.90;51.80;;;;;;10245740;28;872;-73
2022/12/28 21:31:47;;;;;;;;;;;17.90;51.60;;;;;;10246051;28;882;-73
2022/12/28 21:36:43;;;;;;;;;;;17.90;51.70;;;;;;10245082;28;1284;-73
2022/12/28 21:41:47;;;;;;;;;;;17.90;51.80;;;;;;10245615;28;1906;-73
2022/12/28 21:46:43;;;;;;;;;;;17.80;51.80;;;;;;10244177;28;893;-73
2022/12/28 21:51:39;;;;;;;;;;;17.90;51.90;;;;;;10245323;28;782;-73
2022/12/28 21:56:35;;;;;;;;;;;17.90;51.90;;;;;;10244062;28;1083;-73
2022/12/28 22:06:45;;;;;;;;;;;17.80;51.90;;;;;;10244665;28;644;-74
2022/12/28 22:16:54;;;;;;;;;;;17.70;52.20;;;;;;10244073;28;620;-75
2022/12/28 22:21:50;;;;;;;;;;;17.60;52.50;;;;;;10244559;28;1890;-75
2022/12/28 22:26:45;;;;;;;;;;;17.60;52.50;;;;;;10244308;28;892;-75
2022/12/28 22:31:40;;;;;;;;;;;17.50;52.50;;;;;;10244147;28;889;-75
2022/12/28 22:36:36;;;;;;;;;;;17.50;52.60;;;;;;10243662;28;1193;-75
2022/12/28 22:41:31;;;;;;;;;;;17.50;52.50;;;;;;10244468;28;1965;-75
2022/12/28 22:46:26;;;;;;;;;;;17.50;52.50;;;;;;10244423;28;814;-75
2022/12/28 22:51:22;;;;;;;;;;;17.50;52.60;;;;;;10243798;28;794;-75
2022/12/28 22:56:19;;;;;;;;;;;17.40;52.50;;;;;;10244308;28;898;-75
2022/12/28 23:01:14;;;;;;;;;;;17.50;52.60;;;;;;10244115;28;1961;-75
2022/12/28 23:06:10;;;;;;;;;;;17.40;52.70;;;;;;10244597;28;954;-75
2022/12/28 23:11:35;;;;;;;;;;;17.40;52.60;;;;;;10251463;28;825;-75
2022/12/28 23:16:20;;;;;;;;;;;17.50;52.60;;;;;;10250618;28;1354;-75
2022/12/28 23:31:44;;;;;;;;;;;17.40;52.60;;;;;;10250909;28;636;-75
2022/12/28 23:36:39;;;;;;;;;;;17.40;52.60;;;;;;10250995;28;1326;-75
2022/12/28 23:41:47;;;;;;;;;;;17.40;52.60;;;;;;10250250;28;1906;-75
2022/12/28 23:46:42;;;;;;;;;;;17.40;52.70;;;;;;10250109;28;945;-75
2022/12/28 23:51:37;;;;;;;;;;;17.40;52.60;;;;;;10251308;28;956;-75
2022/12/28 23:56:35;;;;;;;;;;;17.40;52.70;;;;;;10249786;28;881;-75
